Impacts TAF Board INFO
FOR SITUATIONAL AWARENESS. NOT TO BE USED FOR FLIGHT PLANNING PURPOSES.
IDs:

KCVG - Cincinnati Intl, KY, US

Issued at 1737 UTC 18 Dec 2017
Updated at 2025 UTC 18 Dec 2017
Potential Impact None Slight Moderate High
Time<<19/21Z 19/22Z 19/23Z 20/00Z 20/01Z 20/02Z 20/03Z 20/04Z 20/05Z 20/06Z 20/07Z 20/08Z 20/09Z
Type PRVL PRVL PRVL
VIS >6 >6 >6
CIG 25 200 200
Cover BKN BKN BKN
FltCat MVFR VFR VFR
WX -- -- --
WDir 240 260 260
WSpd 10 6 6
WGst -- -- --

Raw TAF
KCVG 181737Z 1818/1924 23008KT 2SM -DZ BR OVC006
  FM182300 23007KT 4SM -DZ BR OVC008
  FM190100 23007KT P6SM OVC015
  FM191600 24010KT P6SM BKN025
  FM192200 26006KT P6SM SCT035 BKN200


METAR Board
Radar Display
Forecast Discussion

FOR SITUATIONAL AWARENESS. NOT TO BE USED FOR FLIGHT PLANNING PURPOSES.